Time;durP1;ratioP1;P1;durP2;ratioP2;P2;SDS_P1;SDS_P2;PMS_P1;PMS_P2;Temp;Humidity;BMP_temperature;BMP_pressure;BME280_temperature;BME280_humidity;BME280_pressure;Samples;Min_cycle;Max_cycle;Signal;HPM_P1;HPM_P2
2023/10/25 00:01:30;;;;;;;10.55;6.68;;;9.10;99.90;;;;;;5105037;27;20478;-79
2023/10/25 00:03:56;;;;;;;18.92;7.43;;;9.20;99.90;;;;;;5102146;27;20112;-83
2023/10/25 00:06:22;;;;;;;16.65;6.35;;;10.60;99.90;;;;;;5102739;28;20092;-83
2023/10/25 00:08:47;;;;;;;11.25;6.90;;;9.20;99.90;;;;;;5102597;27;20043;-83
2023/10/25 00:11:13;;;;;;;14.52;7.35;;;;;;;;;;5106234;27;20469;-80
2023/10/25 00:13:39;;;;;;;11.65;6.70;;;9.20;99.90;;;;;;5105153;27;20123;-84
2023/10/25 00:16:05;;;;;;;10.30;6.20;;;9.20;99.90;;;;;;5101786;28;20461;-79
2023/10/25 00:18:31;;;;;;;13.57;6.63;;;10.40;99.90;;;;;;5101920;28;20090;-78
2023/10/25 00:20:56;;;;;;;13.25;6.15;;;9.80;99.90;;;;;;5104777;27;20417;-81
2023/10/25 00:23:22;;;;;;;18.83;6.35;;;9.10;99.90;;;;;;5105140;27;20223;-84
2023/10/25 00:25:48;;;;;;;13.93;6.35;;;9.10;99.90;;;;;;5119870;27;20091;-83
2023/10/25 00:28:14;;;;;;;12.25;5.90;;;10.50;99.90;;;;;;5102056;28;20490;-82
2023/10/25 00:30:40;;;;;;;8.73;6.18;;;9.10;99.90;;;;;;5102211;27;20050;-85
2023/10/25 00:33:09;;;;;;;10.88;6.40;;;9.90;99.90;;;;;;5123114;27;20043;-81
2023/10/25 00:35:35;;;;;;;9.90;5.15;;;9.00;99.90;;;;;;5105490;27;20711;-83
2023/10/25 00:38:01;;;;;;;11.40;5.35;;;10.20;99.90;;;;;;5101294;28;20047;-84
2023/10/25 00:40:27;;;;;;;10.32;5.45;;;9.10;99.90;;;;;;5102136;28;20406;-84
2023/10/25 00:42:52;;;;;;;13.85;6.32;;;11.10;99.90;;;;;;5103002;27;20089;-77
2023/10/25 00:45:18;;;;;;;12.38;6.45;;;7.80;99.90;;;;;;5105508;27;20078;-81
2023/10/25 00:47:44;;;;;;;17.98;6.70;;;8.10;99.90;;;;;;5104050;27;20089;-83
2023/10/25 00:50:10;;;;;;;12.43;5.88;;;9.00;99.90;;;;;;5100733;28;20054;-81
2023/10/25 00:52:37;;;;;;;9.40;5.47;;;10.50;99.90;;;;;;5102102;28;20050;-81
2023/10/25 00:55:03;;;;;;;11.90;5.10;;;9.20;99.90;;;;;;5101327;28;20047;-80
2023/10/25 00:57:30;;;;;;;10.25;5.32;;;9.00;99.90;;;;;;5107467;28;20100;-79
2023/10/25 00:59:56;;;;;;;8.77;5.20;;;11.10;99.90;;;;;;5107126;27;20047;-78
2023/10/25 01:02:22;;;;;;;11.38;5.03;;;10.10;99.90;;;;;;5105470;27;20542;-79
2023/10/25 01:04:48;;;;;;;13.02;5.13;;;11.10;99.90;;;;;;5102606;27;20039;-84
2023/10/25 01:07:14;;;;;;;9.35;5.15;;;9.00;99.90;;;;;;5101684;28;20447;-82
2023/10/25 01:09:39;;;;;;;11.15;5.30;;;10.50;99.90;;;;;;5101825;27;20118;-84
2023/10/25 01:12:05;;;;;;;10.98;5.00;;;11.00;99.90;;;;;;5105197;27;20498;-84
2023/10/25 01:14:31;;;;;;;12.30;5.72;;;8.90;99.90;;;;;;5104658;27;20046;-81
2023/10/25 01:16:57;;;;;;;11.18;4.47;;;10.40;99.90;;;;;;5104382;27;20126;-84
2023/10/25 01:19:23;;;;;;;10.40;5.88;;;10.90;99.90;;;;;;5121691;27;20490;-82
2023/10/25 01:21:48;;;;;;;10.00;5.03;;;9.40;99.90;;;;;;5106082;27;20047;-84
2023/10/25 01:24:14;;;;;;;10.27;4.65;;;10.80;99.90;;;;;;5109578;27;20042;-86
2023/10/25 01:26:41;;;;;;;12.00;4.88;;;8.80;99.90;;;;;;5107017;27;20534;-84
2023/10/25 01:29:06;;;;;;;13.85;5.18;;;10.60;99.90;;;;;;5105141;27;20058;-82
2023/10/25 01:31:32;;;;;;;11.07;4.50;;;8.80;99.90;;;;;;5104800;27;20051;-80
2023/10/25 01:33:57;;;;;;;13.32;4.88;;;10.50;99.90;;;;;;5106762;27;20148;-80
2023/10/25 01:36:23;;;;;;;9.95;4.93;;;8.80;99.90;;;;;;5108767;27;20130;-84
2023/10/25 01:38:49;;;;;;;14.32;5.78;;;11.10;99.90;;;;;;5099452;27;20039;-80
2023/10/25 01:41:17;;;;;;;12.60;4.75;;;10.50;99.90;;;;;;5107380;27;20050;-79
2023/10/25 01:43:43;;;;;;;11.35;5.82;;;10.10;99.90;;;;;;5107140;27;20097;-81
2023/10/25 01:46:09;;;;;;;10.52;5.55;;;10.00;99.90;;;;;;5104603;27;20039;-78
2023/10/25 01:48:37;;;;;;;12.40;5.60;;;10.70;99.90;;;;;;5104074;27;20463;-79
2023/10/25 01:51:05;;;;;;;13.80;5.22;;;9.20;99.90;;;;;;5107955;27;20042;-80
2023/10/25 01:53:32;;;;;;;18.35;5.65;;;10.90;99.90;;;;;;5107382;27;20394;-79
2023/10/25 01:55:58;;;;;;;12.80;6.20;;;10.10;99.90;;;;;;5104897;27;20047;-81
2023/10/25 01:58:23;;;;;;;9.25;5.18;;;9.60;99.90;;;;;;5121291;27;20050;-78
2023/10/25 02:00:49;;;;;;;11.35;6.35;;;10.70;99.90;;;;;;5104563;27;20043;-80
2023/10/25 02:03:15;;;;;;;9.73;5.55;;;9.00;99.90;;;;;;5108318;27;20042;-79
2023/10/25 02:05:40;;;;;;;11.13;5.55;;;8.60;99.90;;;;;;5107382;27;20141;-84
2023/10/25 02:08:07;;;;;;;17.27;6.32;;;8.50;99.90;;;;;;5103163;27;20047;-79
2023/10/25 02:10:33;;;;;;;11.68;6.03;;;9.20;99.90;;;;;;5103741;27;20050;-80
2023/10/25 02:12:59;;;;;;;10.90;6.22;;;9.50;99.90;;;;;;5107099;27;20039;-79
2023/10/25 02:15:25;;;;;;;11.70;6.05;;;8.60;99.90;;;;;;5107458;27;20485;-83
2023/10/25 02:17:51;;;;;;;12.35;6.63;;;10.20;99.90;;;;;;5105223;27;20130;-84
2023/10/25 02:20:16;;;;;;;10.70;5.90;;;10.30;99.90;;;;;;5104134;27;20133;-80
2023/10/25 02:22:42;;;;;;;11.82;6.25;;;8.80;99.90;;;;;;5103565;27;20154;-81
2023/10/25 02:25:08;;;;;;;14.10;6.55;;;9.90;99.90;;;;;;5107485;27;20031;-79
2023/10/25 02:27:33;;;;;;;10.38;6.00;;;8.50;99.90;;;;;;5109921;27;20053;-80
2023/10/25 02:29:59;;;;;;;8.90;6.45;;;8.50;99.90;;;;;;5105711;27;20035;-80
2023/10/25 02:32:25;;;;;;;13.80;6.63;;;9.80;99.90;;;;;;5104390;27;20195;-82
2023/10/25 02:34:50;;;;;;;11.20;6.70;;;9.30;99.90;;;;;;5121944;27;20039;-82
2023/10/25 02:37:17;;;;;;;13.00;6.95;;;8.40;99.90;;;;;;5106359;27;20478;-80
2023/10/25 02:39:43;;;;;;;13.73;7.10;;;10.50;99.90;;;;;;5105977;27;20445;-81
2023/10/25 02:42:09;;;;;;;14.48;6.97;;;9.60;99.90;;;;;;5103541;27;20054;-79
2023/10/25 02:44:35;;;;;;;12.25;7.05;;;10.20;99.90;;;;;;5102525;27;20387;-81
2023/10/25 02:47:00;;;;;;;13.93;6.68;;;8.60;99.90;;;;;;5106190;27;20030;-84
2023/10/25 02:49:26;;;;;;;15.50;7.28;;;8.40;99.90;;;;;;5107137;27;20111;-84
2023/10/25 02:51:51;;;;;;;9.13;6.45;;;9.70;99.90;;;;;;5104591;27;20052;-85
2023/10/25 02:54:17;;;;;;;11.60;6.18;;;9.60;99.90;;;;;;5120830;27;20139;-82
2023/10/25 02:56:43;;;;;;;12.77;6.93;;;8.30;99.90;;;;;;5102569;27;20043;-79
2023/10/25 02:59:08;;;;;;;13.68;7.10;;;9.10;99.90;;;;;;5106933;27;20039;-84
2023/10/25 03:01:34;;;;;;;9.27;7.00;;;8.30;99.90;;;;;;5106591;27;20456;-82
2023/10/25 03:04:00;;;;;;;13.60;7.57;;;9.60;99.90;;;;;;5103096;27;20046;-82
2023/10/25 03:06:26;;;;;;;15.75;7.88;;;8.10;99.90;;;;;;5103283;27;20131;-84
2023/10/25 03:08:52;;;;;;;12.85;7.65;;;8.30;99.90;;;;;;5104055;27;20519;-80
2023/10/25 03:11:18;;;;;;;20.88;8.02;;;10.40;99.90;;;;;;5105855;27;20035;-80
2023/10/25 03:13:43;;;;;;;13.80;7.97;;;10.20;99.90;;;;;;5105536;27;20049;-81
2023/10/25 03:16:09;;;;;;;17.23;8.45;;;8.20;99.90;;;;;;5102626;27;20046;-81
2023/10/25 03:18:35;;;;;;;16.30;8.75;;;8.10;99.90;;;;;;5102402;27;20454;-77
2023/10/25 03:21:04;;;;;;;14.38;8.52;;;9.70;99.90;;;;;;5122497;27;20517;-78
2023/10/25 03:23:33;;;;;;;18.40;8.60;;;10.50;99.90;;;;;;5123610;27;20425;-78
2023/10/25 03:26:06;;;;;;;11.75;8.32;;;10.30;99.90;;;;;;5102909;27;20043;-81
2023/10/25 03:28:32;;;;;;;16.15;9.52;;;10.30;99.90;;;;;;5119859;27;20536;-78
2023/10/25 03:31:03;;;;;;;14.93;9.35;;;10.30;99.90;;;;;;5104685;27;20079;-79
2023/10/25 03:33:28;;;;;;;15.52;8.98;;;10.40;99.90;;;;;;5105828;27;20133;-79
2023/10/25 03:35:54;;;;;;;12.20;8.90;;;9.80;99.90;;;;;;5103776;27;20130;-81
2023/10/25 03:38:20;;;;;;;15.65;10.70;;;8.80;99.90;;;;;;5102087;27;20141;-84
2023/10/25 03:40:47;;;;;;;12.73;9.30;;;8.60;99.90;;;;;;5101290;27;20058;-79
2023/10/25 03:43:13;;;;;;;17.08;10.77;;;8.20;99.90;;;;;;5105954;27;20042;-84
2023/10/25 03:45:38;;;;;;;13.25;8.90;;;9.60;99.90;;;;;;5106163;27;20035;-82
2023/10/25 03:48:04;;;;;;;15.10;9.60;;;8.20;99.90;;;;;;5101951;27;20035;-83
2023/10/25 03:50:30;;;;;;;19.83;10.75;;;8.30;99.90;;;;;;5102450;27;20039;-80
2023/10/25 03:52:56;;;;;;;13.38;9.45;;;8.60;99.90;;;;;;5103642;27;20053;-81
2023/10/25 03:55:21;;;;;;;17.98;10.13;;;9.30;99.90;;;;;;5105781;27;20125;-81
2023/10/25 03:57:47;;;;;;;16.42;9.80;;;9.90;99.90;;;;;;5104844;27;20089;-78
2023/10/25 04:00:14;;;;;;;22.58;9.82;;;10.10;99.90;;;;;;5108318;28;20039;-79
2023/10/25 04:02:40;;;;;;;16.20;10.70;;;8.20;99.90;;;;;;5102669;27;20088;-82
2023/10/25 04:05:06;;;;;;;14.40;10.60;;;9.70;99.90;;;;;;5105689;27;20046;-80
2023/10/25 04:07:32;;;;;;;17.05;10.45;;;8.20;99.90;;;;;;5105065;27;20063;-79
2023/10/25 04:09:57;;;;;;;17.05;10.38;;;9.20;99.90;;;;;;5103167;27;20505;-80
2023/10/25 04:12:23;;;;;;;16.70;10.70;;;8.60;99.90;;;;;;5119516;28;20037;-79
2023/10/25 04:14:49;;;;;;;13.63;9.85;;;8.10;99.90;;;;;;5101686;27;20394;-85
2023/10/25 04:17:14;;;;;;;16.33;9.75;;;9.50;99.90;;;;;;5105518;27;20034;-81
2023/10/25 04:19:41;;;;;;;13.57;9.55;;;8.10;99.90;;;;;;5105397;27;20070;-84
2023/10/25 04:22:07;;;;;;;11.32;9.05;;;;;;;;;;5101460;28;20393;-83
2023/10/25 04:24:33;;;;;;;14.52;9.07;;;8.20;99.90;;;;;;5102208;28;20050;-84
2023/10/25 04:27:02;;;;;;;14.45;8.25;;;9.60;99.90;;;;;;5104045;27;20134;-82
2023/10/25 04:29:28;;;;;;;18.40;10.23;;;8.10;99.90;;;;;;5105573;27;20490;-85
2023/10/25 04:31:55;;;;;;;14.20;8.43;;;8.10;99.90;;;;;;5103412;27;20038;-84
2023/10/25 04:34:20;;;;;;;14.40;9.15;;;9.90;99.90;;;;;;5102004;28;20054;-83
2023/10/25 04:36:47;;;;;;;15.32;8.50;;;8.10;99.90;;;;;;5100879;27;20040;-79
2023/10/25 04:39:12;;;;;;;11.75;8.60;;;8.70;99.90;;;;;;5105433;27;20046;-82
2023/10/25 04:41:40;;;;;;;12.75;8.55;;;9.50;99.90;;;;;;5105009;27;20050;-83
2023/10/25 04:44:06;;;;;;;17.80;8.45;;;8.10;99.90;;;;;;5101455;27;20039;-82
2023/10/25 04:46:31;;;;;;;15.35;8.95;;;10.10;99.90;;;;;;5101788;28;20479;-80
2023/10/25 04:48:57;;;;;;;11.70;8.25;;;9.20;99.90;;;;;;5103615;27;20035;-84
2023/10/25 04:51:23;;;;;;;10.07;8.27;;;10.00;99.90;;;;;;5107001;27;20043;-85
2023/10/25 04:53:48;;;;;;;11.60;8.23;;;9.00;99.90;;;;;;5125327;27;20047;-80
2023/10/25 04:56:14;;;;;;;13.65;8.15;;;6.70;99.90;;;;;;5122433;27;20604;-84
2023/10/25 04:58:40;;;;;;;12.70;7.45;;;10.10;99.90;;;;;;5105437;27;20426;-82
2023/10/25 05:01:15;;;;;;;22.60;9.55;;;8.00;99.90;;;;;;5108161;27;20046;-81
2023/10/25 05:03:44;;;;;;;28.70;19.50;;;8.00;99.90;;;;;;5100563;27;20050;-83
2023/10/25 05:06:10;;;;;;;10.80;8.65;;;8.00;99.90;;;;;;5104830;27;20042;-82
2023/10/25 05:08:37;;;;;;;10.93;7.40;;;8.00;99.90;;;;;;5105163;27;20055;-83
2023/10/25 05:11:05;;;;;;;9.55;7.30;;;8.00;99.90;;;;;;5107652;27;20078;-84
2023/10/25 05:13:32;;;;;;;14.43;7.60;;;7.90;99.90;;;;;;5108906;27;20421;-81
2023/10/25 05:15:58;;;;;;;13.63;8.23;;;7.90;99.90;;;;;;5106865;27;20039;-85
2023/10/25 05:18:25;;;;;;;8.82;7.82;;;7.90;99.90;;;;;;5104416;27;20043;-84
2023/10/25 05:20:57;;;;;;;12.95;7.35;;;7.90;99.90;;;;;;5104765;27;20100;-82
2023/10/25 05:23:28;;;;;;;12.00;8.13;;;7.90;99.90;;;;;;5109002;27;20476;-81
2023/10/25 05:25:54;;;;;;;12.70;7.25;;;7.90;99.90;;;;;;5105849;27;20090;-81
2023/10/25 05:28:20;;;;;;;10.73;6.75;;;7.90;99.90;;;;;;5105287;27;20506;-80
2023/10/25 05:30:49;;;;;;;10.10;6.68;;;7.90;99.90;;;;;;5104935;27;20105;-80
2023/10/25 05:33:18;;;;;;;13.73;6.57;;;7.90;99.90;;;;;;5108035;27;20027;-82
2023/10/25 05:35:44;;;;;;;12.63;6.93;;;6.30;99.90;;;;;;5108551;27;20051;-84
2023/10/25 05:38:13;;;;;;;13.55;6.85;;;7.90;99.90;;;;;;5126410;27;20038;-85
2023/10/25 05:40:40;;;;;;;8.27;6.40;;;7.80;99.90;;;;;;5107877;27;20666;-82
2023/10/25 05:43:12;;;;;;;10.43;6.85;;;7.80;99.90;;;;;;5090792;27;20046;-82
2023/10/25 05:45:38;;;;;;;8.95;6.10;;;9.40;99.90;;;;;;5107517;27;20139;-84
2023/10/25 05:48:09;;;;;;;9.55;6.65;;;9.20;99.90;;;;;;5105114;27;20086;-85
2023/10/25 05:50:36;;;;;;;9.45;6.03;;;7.80;99.90;;;;;;5104410;27;20035;-85
2023/10/25 05:53:02;;;;;;;13.00;6.47;;;7.80;99.90;;;;;;5106180;27;20039;-82
2023/10/25 05:55:28;;;;;;;9.82;6.10;;;7.80;99.90;;;;;;5108035;27;20045;-86
2023/10/25 05:57:54;;;;;;;9.43;5.72;;;7.80;99.90;;;;;;5106376;27;20478;-82
2023/10/25 06:00:20;;;;;;;10.48;6.18;;;7.80;99.90;;;;;;5103938;27;20114;-83
2023/10/25 06:02:49;;;;;;;8.57;5.60;;;7.70;99.90;;;;;;5120433;27;20047;-78
2023/10/25 06:05:15;;;;;;;8.50;5.25;;;7.70;99.90;;;;;;5108606;27;20045;-85
2023/10/25 06:07:41;;;;;;;7.63;5.30;;;7.70;99.90;;;;;;5106815;27;20137;-85
2023/10/25 06:10:09;;;;;;;10.40;6.22;;;6.60;99.90;;;;;;5121577;27;20042;-86
2023/10/25 06:12:35;;;;;;;10.27;5.65;;;7.70;99.90;;;;;;5104131;27;20499;-83
2023/10/25 06:15:00;;;;;;;11.88;6.07;;;7.60;99.90;;;;;;5105043;27;20051;-85
2023/10/25 06:17:27;;;;;;;9.93;6.35;;;9.70;99.90;;;;;;5108026;27;20038;-79
2023/10/25 06:19:53;;;;;;;11.55;5.88;;;7.60;99.90;;;;;;5106522;27;20043;-85
2023/10/25 06:22:20;;;;;;;7.18;5.50;;;7.50;99.90;;;;;;5103435;27;20054;-86
2023/10/25 06:24:45;;;;;;;10.20;6.35;;;7.60;99.90;;;;;;5120746;27;20074;-78
2023/10/25 06:27:11;;;;;;;8.15;6.13;;;9.20;99.90;;;;;;5107529;27;20070;-85
2023/10/25 06:29:37;;;;;;;10.65;5.53;;;8.40;99.90;;;;;;5107157;27;20050;-83
2023/10/25 06:32:03;;;;;;;8.60;6.20;;;7.40;99.90;;;;;;5105507;27;20569;-81
2023/10/25 06:34:28;;;;;;;9.20;5.60;;;7.40;99.90;;;;;;5104196;27;20478;-83
2023/10/25 06:36:54;;;;;;;12.73;6.15;;;8.00;99.90;;;;;;5103659;27;20042;-80
2023/10/25 06:39:20;;;;;;;12.13;5.85;;;7.50;99.90;;;;;;5106962;27;20051;-83
2023/10/25 06:41:46;;;;;;;13.63;5.30;;;7.50;99.90;;;;;;5105959;27;20059;-82
2023/10/25 06:44:12;;;;;;;12.23;6.05;;;7.50;99.90;;;;;;5099227;27;20460;-83
2023/10/25 06:46:38;;;;;;;13.25;6.55;;;7.10;99.90;;;;;;5107127;27;20049;-85
2023/10/25 06:49:04;;;;;;;14.23;6.07;;;7.50;99.90;;;;;;5103827;27;20510;-85
2023/10/25 06:51:30;;;;;;;11.77;6.15;;;7.40;99.90;;;;;;5103653;27;20028;-82
2023/10/25 06:53:56;;;;;;;10.35;5.95;;;7.40;99.90;;;;;;5104407;27;20059;-83
2023/10/25 06:56:22;;;;;;;8.57;5.65;;;7.40;99.90;;;;;;5106060;27;20034;-85
2023/10/25 06:58:49;;;;;;;8.00;5.47;;;7.40;99.90;;;;;;5106349;27;20049;-81
2023/10/25 07:01:18;;;;;;;8.45;6.38;;;7.50;99.90;;;;;;5103707;27;20104;-85
2023/10/25 07:03:49;;;;;;;8.77;6.05;;;7.40;99.90;;;;;;5102798;27;20458;-86
2023/10/25 07:06:16;;;;;;;12.40;6.60;;;7.50;99.90;;;;;;5103218;27;20118;-83
2023/10/25 07:08:42;;;;;;;8.73;6.30;;;7.50;99.90;;;;;;5103188;27;20035;-86
2023/10/25 07:11:08;;;;;;;10.25;6.07;;;7.50;99.90;;;;;;5105603;27;20053;-84
2023/10/25 07:13:33;;;;;;;15.13;6.40;;;8.90;99.90;;;;;;5107028;27;20121;-86
2023/10/25 07:15:59;;;;;;;10.93;5.72;;;6.30;99.90;;;;;;5104700;27;20062;-85
2023/10/25 07:18:25;;;;;;;8.98;5.65;;;9.50;99.90;;;;;;5108097;27;20099;-85
2023/10/25 07:20:51;;;;;;;11.70;6.05;;;7.30;99.90;;;;;;5105814;27;20486;-78
2023/10/25 07:23:17;;;;;;;7.70;5.10;;;9.00;99.90;;;;;;5119862;27;20573;-83
2023/10/25 07:25:43;;;;;;;12.90;6.35;;;9.20;99.90;;;;;;5102110;27;20095;-85
2023/10/25 07:28:09;;;;;;;11.43;5.28;;;7.50;99.90;;;;;;5105596;27;20042;-85
2023/10/25 07:30:35;;;;;;;9.55;5.38;;;8.90;99.90;;;;;;5106196;27;20064;-85
2023/10/25 07:33:01;;;;;;;16.70;6.00;;;7.50;99.90;;;;;;5103626;27;20042;-86
2023/10/25 07:35:26;;;;;;;11.65;5.80;;;7.40;99.90;;;;;;5102626;27;20122;-81
2023/10/25 07:37:52;;;;;;;11.25;6.25;;;7.50;99.90;;;;;;5101967;27;20051;-79
2023/10/25 07:40:18;;;;;;;13.07;6.10;;;9.50;99.90;;;;;;5122994;27;20082;-80
2023/10/25 07:42:46;;;;;;;13.45;5.88;;;7.50;99.90;;;;;;5106773;27;20054;-83
2023/10/25 07:45:12;;;;;;;10.13;5.30;;;9.50;99.90;;;;;;5102521;27;20070;-82
2023/10/25 07:47:38;;;;;;;9.55;6.70;;;7.80;99.90;;;;;;5101949;27;20107;-84
2023/10/25 07:50:05;;;;;;;13.23;6.53;;;7.80;99.90;;;;;;5104679;27;20039;-83
2023/10/25 07:52:33;;;;;;;13.90;6.05;;;7.50;99.90;;;;;;5105150;27;20085;-78
2023/10/25 07:54:59;;;;;;;11.40;5.78;;;8.00;99.90;;;;;;5104002;27;20126;-80
2023/10/25 07:57:29;;;;;;;9.93;6.28;;;7.60;99.90;;;;;;5102135;27;20126;-81
2023/10/25 07:59:54;;;;;;;14.50;6.00;;;7.50;99.90;;;;;;5102280;27;20031;-82
2023/10/25 08:02:20;;;;;;;11.60;6.57;;;9.40;99.90;;;;;;5106047;27;20582;-86
2023/10/25 08:04:46;;;;;;;11.77;6.82;;;7.60;99.90;;;;;;5105505;27;20088;-80
2023/10/25 08:07:11;;;;;;;10.82;6.47;;;8.50;99.90;;;;;;5119194;27;20047;-79
2023/10/25 08:09:40;;;;;;;14.65;6.40;;;9.30;99.90;;;;;;5102394;28;20474;-83
2023/10/25 08:12:06;;;;;;;9.98;6.57;;;7.60;99.90;;;;;;5104317;27;20112;-84
2023/10/25 08:14:31;;;;;;;12.38;6.28;;;7.70;99.90;;;;;;5105119;27;20731;-77
2023/10/25 08:16:57;;;;;;;11.30;5.75;;;7.70;99.90;;;;;;5104597;27;20129;-83
2023/10/25 08:19:23;;;;;;;10.98;6.90;;;8.60;99.90;;;;;;5102514;28;20510;-83
2023/10/25 08:21:48;;;;;;;10.52;5.85;;;7.80;99.90;;;;;;5101140;28;20075;-84
2023/10/25 08:24:14;;;;;;;8.82;6.60;;;9.80;99.90;;;;;;5105655;27;20031;-83
2023/10/25 08:26:40;;;;;;;11.02;6.20;;;9.80;99.90;;;;;;5108311;27;20319;-83
2023/10/25 08:29:06;;;;;;;11.52;7.03;;;7.80;99.90;;;;;;5107162;27;20039;-82
2023/10/25 08:31:35;;;;;;;16.90;7.10;;;7.90;99.90;;;;;;5106060;27;20122;-80
2023/10/25 08:34:01;;;;;;;11.00;6.93;;;8.10;99.90;;;;;;5107711;27;20463;-83
2023/10/25 08:36:30;;;;;;;14.40;7.30;;;8.00;99.90;;;;;;5109346;27;20034;-80
2023/10/25 08:38:57;;;;;;;11.13;6.47;;;9.30;99.90;;;;;;5108978;27;20035;-85
2023/10/25 08:41:25;;;;;;;9.52;7.00;;;9.80;99.90;;;;;;5105344;27;20046;-84
2023/10/25 08:43:51;;;;;;;13.20;6.78;;;8.10;99.90;;;;;;5105877;27;20607;-84
2023/10/25 08:46:18;;;;;;;10.20;6.55;;;10.30;99.90;;;;;;5109569;27;20050;-82
2023/10/25 08:48:44;;;;;;;12.18;7.10;;;9.80;99.90;;;;;;5109260;27;20038;-83
2023/10/25 08:51:11;;;;;;;9.18;6.78;;;10.20;99.90;;;;;;5123310;27;20485;-78
2023/10/25 08:53:37;;;;;;;11.60;6.32;;;8.20;99.90;;;;;;5122767;27;20043;-83
2023/10/25 08:56:03;;;;;;;11.60;7.00;;;10.20;99.90;;;;;;5106284;27;20047;-84
2023/10/25 08:58:29;;;;;;;11.45;6.63;;;8.30;99.90;;;;;;5108744;27;20046;-81
2023/10/25 09:00:55;;;;;;;14.95;7.90;;;9.30;99.90;;;;;;5125769;27;20053;-84
2023/10/25 09:03:33;;;;;;;14.25;6.60;;;9.30;99.90;;;;;;5105337;27;20043;-84
2023/10/25 09:06:04;;;;;;;11.10;6.93;;;8.40;99.90;;;;;;5107212;27;20474;-79
2023/10/25 09:08:30;;;;;;;10.55;7.38;;;8.40;99.90;;;;;;5092153;27;20042;-83
2023/10/25 09:11:08;;;;;;;10.02;6.07;;;8.70;99.90;;;;;;5107346;27;20091;-80
2023/10/25 09:13:39;;;;;;;13.23;7.13;;;8.50;99.90;;;;;;5105501;27;20132;-79
2023/10/25 09:16:08;;;;;;;18.20;6.43;;;8.60;99.90;;;;;;5106909;27;20070;-83
2023/10/25 09:18:36;;;;;;;9.52;6.90;;;8.60;99.90;;;;;;5108142;27;20043;-81
2023/10/25 09:21:04;;;;;;;8.52;6.32;;;9.60;99.90;;;;;;5107189;27;20081;-79
2023/10/25 09:23:30;;;;;;;11.95;6.15;;;9.40;99.90;;;;;;5104965;27;20471;-82
2023/10/25 09:26:00;;;;;;;8.77;6.07;;;10.30;99.90;;;;;;5122445;27;20051;-83
2023/10/25 09:28:27;;;;;;;13.15;6.68;;;8.70;99.90;;;;;;5108778;27;20042;-81
2023/10/25 09:31:01;;;;;;;9.63;6.28;;;8.80;99.90;;;;;;5107504;27;20490;-83
2023/10/25 09:33:32;;;;;;;8.30;6.30;;;10.90;99.90;;;;;;5105411;27;20406;-79
2023/10/25 09:35:58;;;;;;;9.93;6.10;;;9.80;99.90;;;;;;5105100;27;20039;-81
2023/10/25 09:38:24;;;;;;;16.80;7.03;;;8.80;99.90;;;;;;5123830;27;20417;-79
2023/10/25 09:40:51;;;;;;;7.57;5.32;;;11.00;99.90;;;;;;5107736;27;20195;-79
2023/10/25 09:43:20;;;;;;;8.20;6.38;;;8.90;99.90;;;;;;5105098;27;20069;-82
2023/10/25 09:45:53;;;;;;;10.35;6.18;;;8.50;99.90;;;;;;5103442;27;20543;-78
2023/10/25 09:48:20;;;;;;;11.60;6.22;;;8.90;99.90;;;;;;5121604;27;20051;-82
2023/10/25 09:51:31;;;;;;;10.90;6.32;;;11.00;99.90;;;;;;5103777;27;20047;-81
2023/10/25 09:54:11;;;;;;;13.57;6.88;;;9.10;99.90;;;;;;5094729;27;20051;-80
2023/10/25 09:56:37;;;;;;;11.32;6.15;;;9.10;99.90;;;;;;5104291;27;20514;-82
2023/10/25 09:59:06;;;;;;;12.80;6.40;;;9.80;99.90;;;;;;5121889;27;20043;-83
2023/10/25 10:01:33;;;;;;;12.75;6.30;;;9.20;99.90;;;;;;5107808;27;20505;-84
2023/10/25 10:04:37;;;;;;;11.82;6.03;;;11.00;99.90;;;;;;5107189;27;20553;-83
2023/10/25 10:07:02;;;;;;;14.13;5.82;;;9.30;99.90;;;;;;5082155;27;20054;-82
2023/10/25 10:09:45;;;;;;;8.25;5.88;;;9.40;99.90;;;;;;5107748;27;20039;-82
2023/10/25 10:12:12;;;;;;;11.70;6.30;;;9.40;99.90;;;;;;5121776;27;20080;-83
2023/10/25 10:14:38;;;;;;;7.97;5.30;;;9.50;99.90;;;;;;5103429;27;20510;-81
2023/10/25 10:17:05;;;;;;;12.80;5.57;;;9.50;99.90;;;;;;5105372;27;20036;-85
2023/10/25 10:19:32;;;;;;;11.25;6.20;;;9.60;99.90;;;;;;5124349;27;20053;-79
2023/10/25 10:22:08;;;;;;;10.18;6.03;;;9.60;99.90;;;;;;5106015;27;20076;-85
2023/10/25 10:24:44;;;;;;;9.75;5.75;;;9.90;99.90;;;;;;5103908;27;20043;-79
2023/10/25 10:27:16;;;;;;;10.07;5.55;;;10.60;99.90;;;;;;5121913;27;20035;-79
2023/10/25 10:29:43;;;;;;;12.95;6.25;;;9.80;99.90;;;;;;5107194;27;20078;-77
2023/10/25 10:32:09;;;;;;;13.75;6.70;;;11.30;99.90;;;;;;5122466;27;20031;-79
2023/10/25 10:34:53;;;;;;;14.18;5.90;;;10.00;99.90;;;;;;5102983;27;20047;-84
2023/10/25 10:37:21;;;;;;;9.68;5.22;;;10.00;99.90;;;;;;5106860;27;20042;-83
2023/10/25 10:39:56;;;;;;;10.85;6.00;;;11.40;99.90;;;;;;5106685;27;20094;-81
2023/10/25 10:42:34;;;;;;;11.45;5.75;;;10.10;99.90;;;;;;5103170;27;20058;-84
2023/10/25 10:45:11;;;;;;;12.15;5.63;;;10.10;99.90;;;;;;5104029;27;20391;-81
2023/10/25 10:47:41;;;;;;;12.18;5.47;;;11.60;99.90;;;;;;5106819;27;20046;-80
2023/10/25 10:50:27;;;;;;;8.52;5.68;;;10.20;99.90;;;;;;5104184;27;20532;-79
2023/10/25 10:52:53;;;;;;;17.58;5.88;;;10.30;99.90;;;;;;5119572;27;20054;-77
2023/10/25 10:55:21;;;;;;;10.50;5.50;;;10.30;99.90;;;;;;5105971;27;20045;-78
2023/10/25 10:57:47;;;;;;;11.48;4.93;;;10.40;99.90;;;;;;5106420;27;20092;-79
2023/10/25 11:00:18;;;;;;;9.95;5.10;;;11.60;99.90;;;;;;5104545;27;20119;-82
2023/10/25 11:02:50;;;;;;;12.75;5.38;;;10.50;99.90;;;;;;5102312;27;20506;-81
2023/10/25 11:05:19;;;;;;;10.10;5.22;;;10.50;99.90;;;;;;5105853;27;20035;-78
2023/10/25 11:07:47;;;;;;;10.75;5.55;;;10.60;99.90;;;;;;5106936;27;20070;-77
2023/10/25 11:10:12;;;;;;;8.15;4.65;;;11.50;99.90;;;;;;5103361;27;20429;-79
2023/10/25 11:12:39;;;;;;;10.40;5.15;;;10.70;99.90;;;;;;5119729;27;20049;-77
2023/10/25 11:15:06;;;;;;;7.55;5.13;;;12.30;99.90;;;;;;5104001;27;20129;-81
2023/10/25 11:17:32;;;;;;;9.52;4.85;;;10.80;99.90;;;;;;5105480;27;20038;-78
2023/10/25 11:19:59;;;;;;;13.63;4.45;;;12.10;99.90;;;;;;5105909;27;20034;-78
2023/10/25 11:22:25;;;;;;;12.57;5.10;;;11.10;99.90;;;;;;5103020;27;20063;-80
2023/10/25 11:24:59;;;;;;;10.60;5.25;;;10.90;99.90;;;;;;5101586;27;20514;-83
2023/10/25 11:27:32;;;;;;;11.88;5.38;;;11.00;99.90;;;;;;5119478;27;20043;-82
2023/10/25 11:29:59;;;;;;;14.60;4.65;;;11.20;99.90;;;;;;5101857;27;20543;-79
2023/10/25 11:32:28;;;;;;;9.90;4.88;;;11.10;99.90;;;;;;5122963;27;20413;-78
2023/10/25 11:34:56;;;;;;;10.27;4.63;;;11.10;99.90;;;;;;5106222;27;20046;-79
2023/10/25 11:37:26;;;;;;;8.73;4.50;;;11.80;99.90;;;;;;5101893;27;20103;-80
2023/10/25 11:40:02;;;;;;;11.82;4.72;;;11.20;99.90;;;;;;5101575;27;20039;-80
2023/10/25 11:42:32;;;;;;;6.50;4.40;;;11.10;99.90;;;;;;5102773;27;20437;-80
2023/10/25 11:45:03;;;;;;;5.88;4.18;;;11.30;99.90;;;;;;5102348;27;20444;-84
2023/10/25 11:47:31;;;;;;;5.80;3.88;;;11.30;99.90;;;;;;5105915;27;20045;-81
2023/10/25 11:49:59;;;;;;;11.52;4.32;;;11.20;99.90;;;;;;5105560;27;20035;-77
2023/10/25 11:52:27;;;;;;;9.93;4.20;;;11.30;99.90;;;;;;5101758;27;20043;-84
2023/10/25 11:54:56;;;;;;;8.27;4.05;;;11.90;99.90;;;;;;5102348;27;20050;-81
2023/10/25 11:57:36;;;;;;;6.65;3.90;;;11.40;99.90;;;;;;5105449;27;20082;-84
2023/10/25 12:00:02;;;;;;;8.10;3.88;;;11.40;99.90;;;;;;5103803;27;20130;-82
2023/10/25 12:02:28;;;;;;;7.40;4.05;;;11.40;99.90;;;;;;5101749;27;20127;-81
2023/10/25 12:04:55;;;;;;;7.43;4.30;;;10.60;99.90;;;;;;5101507;28;20434;-82
2023/10/25 12:07:21;;;;;;;8.65;4.30;;;13.10;99.90;;;;;;5104552;27;20027;-83
2023/10/25 12:09:51;;;;;;;9.38;4.68;;;10.90;99.90;;;;;;5122318;27;20082;-79
2023/10/25 12:12:18;;;;;;;14.40;4.65;;;12.00;99.90;;;;;;5102649;27;20413;-79
2023/10/25 12:14:43;;;;;;;9.15;4.38;;;12.90;99.90;;;;;;5101620;28;20035;-80
2023/10/25 12:17:09;;;;;;;8.35;3.97;;;13.40;99.90;;;;;;5103479;27;20343;-78
2023/10/25 12:19:35;;;;;;;10.02;3.42;;;13.20;99.90;;;;;;5121740;27;20394;-77
2023/10/25 12:22:05;;;;;;;4.25;3.15;;;13.00;99.90;;;;;;5104710;27;20046;-81
2023/10/25 12:24:31;;;;;;;5.90;3.28;;;11.80;99.90;;;;;;5102215;28;20114;-79
2023/10/25 12:26:56;;;;;;;9.02;3.22;;;12.30;99.90;;;;;;5100996;28;20054;-83
2023/10/25 12:29:24;;;;;;;6.75;4.00;;;12.80;99.90;;;;;;5102140;27;20043;-81
2023/10/25 12:31:50;;;;;;;9.48;3.65;;;12.80;99.90;;;;;;5101336;28;20050;-85
2023/10/25 12:34:16;;;;;;;10.52;3.83;;;11.10;99.90;;;;;;5103305;27;20281;-84
2023/10/25 12:36:42;;;;;;;8.13;3.00;;;12.60;99.90;;;;;;5105109;27;20234;-82
2023/10/25 12:39:08;;;;;;;8.00;3.75;;;11.30;99.90;;;;;;5103977;27;20038;-84
2023/10/25 12:41:34;;;;;;;7.78;3.83;;;11.10;99.90;;;;;;5117634;28;20474;-82
2023/10/25 12:44:02;;;;;;;5.95;3.08;;;12.80;99.90;;;;;;5101800;28;20046;-79
2023/10/25 12:46:33;;;;;;;6.63;3.30;;;11.20;99.90;;;;;;5105433;27;20099;-84